Time;durP1;ratioP1;P1;durP2;ratioP2;P2;SDS_P1;SDS_P2;PMS_P1;PMS_P2;Temp;Humidity;BMP_temperature;BMP_pressure;BME280_temperature;BME280_humidity;BME280_pressure;Samples;Min_cycle;Max_cycle;Signal;HPM_P1;HPM_P2
2023/01/24 00:02:43;;;;;;;;;;;4.70;86.80;;;;;;9179051;19;20546;-69
2023/01/24 00:05:47;;;;;;;;;;;4.70;86.20;;;;;;9177044;19;19914;-68
2023/01/24 00:08:50;;;;;;;;;;;4.70;86.30;;;;;;9174370;19;19915;-69
2023/01/24 00:11:51;;;;;;;;;;;4.70;86.20;;;;;;9171362;19;19919;-68
2023/01/24 00:14:57;;;;;;;;;;;4.70;86.20;;;;;;9176182;19;19930;-69
2023/01/24 00:17:58;;;;;;;;;;;4.70;86.20;;;;;;9174340;19;19927;-69
2023/01/24 00:21:03;;;;;;;;;;;4.70;86.20;;;;;;9178887;19;19918;-69
2023/01/24 00:24:05;;;;;;;;;;;4.70;86.80;;;;;;9177997;19;19923;-69
2023/01/24 00:27:08;;;;;;;;;;;4.70;86.20;;;;;;9177853;19;19927;-69
2023/01/24 00:30:10;;;;;;;;;;;4.70;86.10;;;;;;9174960;19;19918;-68
2023/01/24 00:33:14;;;;;;;;;;;4.70;86.10;;;;;;9178531;19;19914;-69
2023/01/24 00:36:15;;;;;;;;;;;4.70;86.10;;;;;;9178261;19;19922;-69
2023/01/24 00:39:19;;;;;;;;;;;4.70;86.10;;;;;;9175911;19;19915;-69
2023/01/24 00:42:20;;;;;;;;;;;4.70;86.10;;;;;;9185608;19;19922;-69
2023/01/24 00:45:24;;;;;;;;;;;4.70;86.10;;;;;;9183904;19;19921;-69
2023/01/24 00:48:25;;;;;;;;;;;4.70;86.10;;;;;;9184935;19;19918;-69
2023/01/24 00:51:29;;;;;;;;;;;4.70;86.10;;;;;;9185393;19;20284;-69
2023/01/24 00:54:31;;;;;;;;;;;4.60;86.00;;;;;;9185026;19;20344;-69
2023/01/24 00:57:34;;;;;;;;;;;4.60;86.00;;;;;;9185531;19;20271;-68
2023/01/24 01:00:38;;;;;;;;;;;4.60;86.00;;;;;;9180881;19;20489;-69
2023/01/24 01:03:42;;;;;;;;;;;4.60;86.10;;;;;;9183756;19;19914;-68
2023/01/24 01:06:44;;;;;;;;;;;4.60;86.10;;;;;;9184836;19;19986;-69
2023/01/24 01:09:48;;;;;;;;;;;4.50;86.00;;;;;;9180650;19;19938;-68
2023/01/24 01:12:49;;;;;;;;;;;4.60;86.10;;;;;;9184871;19;19922;-69
2023/01/24 01:16:13;;;;;;;;;;;4.50;86.10;;;;;;9183998;19;19914;-69
2023/01/24 01:19:21;;;;;;;;;;;4.50;86.10;;;;;;9183056;19;19930;-68
2023/01/24 01:22:25;;;;;;;;;;;4.50;86.10;;;;;;9182786;19;19926;-68
2023/01/24 01:25:27;;;;;;;;;;;4.50;86.10;;;;;;9181926;19;19922;-68
2023/01/24 01:28:30;;;;;;;;;;;4.50;86.10;;;;;;9184060;19;19926;-69
2023/01/24 01:31:32;;;;;;;;;;;4.50;86.10;;;;;;9184389;19;19918;-68
2023/01/24 01:34:37;;;;;;;;;;;4.50;86.10;;;;;;9182530;19;19922;-68
2023/01/24 01:37:39;;;;;;;;;;;4.50;86.00;;;;;;9182181;19;20328;-68
2023/01/24 01:40:43;;;;;;;;;;;4.50;86.10;;;;;;9184194;19;19910;-68
2023/01/24 01:47:33;;;;;;;;;;;4.50;86.10;;;;;;9183646;19;19937;-68
2023/01/24 01:50:37;;;;;;;;;;;4.40;86.00;;;;;;9180534;19;20372;-68
2023/01/24 01:53:52;;;;;;;;;;;4.40;86.00;;;;;;9180517;19;19922;-68
2023/01/24 01:56:58;;;;;;;;;;;4.40;86.10;;;;;;9181586;19;20263;-69
2023/01/24 02:00:08;;;;;;;;;;;4.40;86.10;;;;;;9177631;19;20252;-68
2023/01/24 02:06:48;;;;;;;;;;;4.40;86.10;;;;;;9180831;19;19934;-69
2023/01/24 02:09:51;;;;;;;;;;;4.40;86.10;;;;;;9180833;19;19919;-69
2023/01/24 02:12:54;;;;;;;;;;;4.40;86.00;;;;;;9180982;19;19919;-68
2023/01/24 02:16:02;;;;;;;;;;;4.40;85.90;;;;;;9180958;19;20264;-68
2023/01/24 02:19:09;;;;;;;;;;;4.40;85.90;;;;;;9180700;19;19925;-68
2023/01/24 02:22:15;;;;;;;;;;;4.40;86.00;;;;;;9182584;19;19923;-69
2023/01/24 02:25:22;;;;;;;;;;;4.30;85.90;;;;;;9180629;19;19936;-69
2023/01/24 02:28:24;;;;;;;;;;;4.30;85.90;;;;;;9182213;19;19919;-68
2023/01/24 02:31:29;;;;;;;;;;;4.30;86.00;;;;;;9180069;19;19926;-68
2023/01/24 02:34:31;;;;;;;;;;;4.30;86.00;;;;;;9180648;19;20014;-68
2023/01/24 02:37:36;;;;;;;;;;;4.30;86.00;;;;;;9180250;19;19920;-68
2023/01/24 02:40:38;;;;;;;;;;;4.30;86.00;;;;;;9179891;19;19929;-65
2023/01/24 02:43:44;;;;;;;;;;;4.30;85.90;;;;;;9181483;19;19931;-67
2023/01/24 02:46:45;;;;;;;;;;;4.30;85.90;;;;;;9181358;19;19923;-66
2023/01/24 02:49:49;;;;;;;;;;;4.30;86.00;;;;;;9179498;19;19914;-66
2023/01/24 02:59:34;;;;;;;;;;;4.20;85.90;;;;;;9177199;19;19923;-67
2023/01/24 03:02:37;;;;;;;;;;;4.20;85.90;;;;;;9178014;19;19929;-67
2023/01/24 03:05:46;;;;;;;;;;;4.20;85.90;;;;;;9175977;19;19946;-64
2023/01/24 03:08:52;;;;;;;;;;;4.20;85.90;;;;;;9178503;19;19936;-67
2023/01/24 03:35:37;;;;;;;;;;;4.20;85.90;;;;;;9178399;19;19923;-67
2023/01/24 03:42:03;;;;;;;;;;;4.20;85.80;;;;;;9178450;19;19982;-65
2023/01/24 03:45:16;;;;;;;;;;;4.20;85.80;;;;;;9177632;19;19961;-66
2023/01/24 03:48:26;;;;;;;;;;;4.20;85.80;;;;;;9177400;19;20316;-67
2023/01/24 03:54:50;;;;;;;;;;;4.20;85.80;;;;;;9177627;19;20312;-66
2023/01/24 03:57:52;;;;;;;;;;;4.20;85.80;;;;;;9172726;19;19942;-66
2023/01/24 04:00:56;;;;;;;;;;;4.20;85.80;;;;;;9179581;19;20245;-65
2023/01/24 04:04:20;;;;;;;;;;;4.10;85.70;;;;;;9175455;19;19982;-65
2023/01/24 04:07:24;;;;;;;;;;;4.20;85.80;;;;;;9176665;19;19941;-67
2023/01/24 04:10:35;;;;;;;;;;;4.10;85.80;;;;;;9174012;19;19982;-66
2023/01/24 04:13:39;;;;;;;;;;;4.10;85.80;;;;;;9176453;19;19967;-66
2023/01/24 04:16:40;;;;;;;;;;;4.10;86.30;;;;;;9176081;19;20357;-66
2023/01/24 04:19:51;;;;;;;;;;;4.10;85.70;;;;;;9177297;19;19925;-66
2023/01/24 04:22:53;;;;;;;;;;;4.10;85.70;;;;;;9176387;19;19914;-66
2023/01/24 04:25:59;;;;;;;;;;;4.10;85.70;;;;;;9176129;19;19930;-66
2023/01/24 04:29:03;;;;;;;;;;;4.10;85.70;;;;;;9175242;19;19922;-69
2023/01/24 04:32:06;;;;;;;;;;;4.00;85.70;;;;;;9176034;19;19930;-66
2023/01/24 04:35:23;;;;;;;;;;;4.00;85.70;;;;;;9176340;19;19915;-68
2023/01/24 04:38:30;;;;;;;;;;;4.00;85.80;;;;;;9175832;19;19930;-64
2023/01/24 04:41:39;;;;;;;;;;;4.00;85.80;;;;;;9175576;19;19938;-66
2023/01/24 04:44:42;;;;;;;;;;;4.00;85.80;;;;;;9177626;19;19922;-67
2023/01/24 04:47:45;;;;;;;;;;;4.00;85.80;;;;;;9175716;19;19915;-67
2023/01/24 04:50:50;;;;;;;;;;;4.00;85.70;;;;;;9172738;19;20334;-66
2023/01/24 04:53:52;;;;;;;;;;;4.00;85.70;;;;;;9175125;19;19982;-66
2023/01/24 04:57:03;;;;;;;;;;;4.00;86.30;;;;;;9175091;19;19918;-66
2023/01/24 05:00:07;;;;;;;;;;;4.00;85.70;;;;;;9168266;19;19923;-66
2023/01/24 05:03:12;;;;;;;;;;;4.00;85.70;;;;;;9174838;19;19918;-66
2023/01/24 05:06:13;;;;;;;;;;;4.00;85.70;;;;;;9174176;19;20367;-66
2023/01/24 05:09:17;;;;;;;;;;;4.00;85.70;;;;;;9173040;19;19922;-66
2023/01/24 05:12:31;;;;;;;;;;;4.00;85.60;;;;;;9174704;19;20256;-65
2023/01/24 05:15:38;;;;;;;;;;;4.00;85.60;;;;;;9174106;19;19923;-65
2023/01/24 05:18:42;;;;;;;;;;;4.00;85.60;;;;;;9173980;19;19926;-65
2023/01/24 05:21:45;;;;;;;;;;;4.00;85.70;;;;;;9173752;19;20530;-66
2023/01/24 05:24:48;;;;;;;;;;;3.90;85.60;;;;;;9173628;19;19938;-68
2023/01/24 05:27:52;;;;;;;;;;;4.00;85.70;;;;;;9178192;19;20249;-67
2023/01/24 05:31:03;;;;;;;;;;;3.90;85.70;;;;;;9181592;19;19918;-67
2023/01/24 05:34:07;;;;;;;;;;;3.90;85.70;;;;;;9182400;19;20392;-68
2023/01/24 05:37:09;;;;;;;;;;;4.00;85.70;;;;;;9182908;19;19923;-65
2023/01/24 05:40:16;;;;;;;;;;;3.90;85.70;;;;;;9182174;19;19923;-65
2023/01/24 05:43:18;;;;;;;;;;;3.90;85.60;;;;;;9182116;19;19923;-67
2023/01/24 05:46:22;;;;;;;;;;;4.00;85.70;;;;;;9182339;19;19926;-67
2023/01/24 05:49:50;;;;;;;;;;;4.00;85.60;;;;;;9181553;19;20337;-66
2023/01/24 05:52:53;;;;;;;;;;;4.00;85.60;;;;;;9183158;19;20331;-66
2023/01/24 05:55:56;;;;;;;;;;;4.00;85.60;;;;;;9180924;19;19926;-65
2023/01/24 05:59:01;;;;;;;;;;;4.00;85.60;;;;;;9178721;19;19911;-66
2023/01/24 06:02:03;;;;;;;;;;;3.90;85.50;;;;;;9181343;19;19914;-65
2023/01/24 06:05:06;;;;;;;;;;;3.90;85.50;;;;;;9183051;19;19919;-67
2023/01/24 06:08:08;;;;;;;;;;;3.90;85.50;;;;;;9181143;19;19925;-66
2023/01/24 06:11:13;;;;;;;;;;;3.90;85.50;;;;;;9179753;19;19927;-67
2023/01/24 06:14:15;;;;;;;;;;;3.90;85.60;;;;;;9180691;19;20335;-66
2023/01/24 06:17:19;;;;;;;;;;;3.90;85.60;;;;;;9180353;19;19927;-67
2023/01/24 06:20:21;;;;;;;;;;;3.90;85.60;;;;;;9180940;19;19915;-66
2023/01/24 06:23:26;;;;;;;;;;;3.90;85.60;;;;;;9180164;19;19914;-66
2023/01/24 06:26:32;;;;;;;;;;;3.90;85.60;;;;;;9180313;19;19925;-67
2023/01/24 06:29:36;;;;;;;;;;;3.90;85.50;;;;;;9180972;19;20355;-67
2023/01/24 06:32:58;;;;;;;;;;;3.80;85.50;;;;;;9181860;19;19923;-67
2023/01/24 06:36:17;;;;;;;;;;;3.80;85.50;;;;;;9178877;19;19918;-66
2023/01/24 06:39:20;;;;;;;;;;;3.80;85.60;;;;;;9178737;19;19915;-66
2023/01/24 06:42:23;;;;;;;;;;;3.80;85.60;;;;;;9181559;19;19914;-67
2023/01/24 06:45:27;;;;;;;;;;;3.80;85.60;;;;;;9181910;19;19930;-67
2023/01/24 06:48:30;;;;;;;;;;;3.80;85.60;;;;;;9181345;19;19919;-66
2023/01/24 06:51:32;;;;;;;;;;;3.80;85.60;;;;;;9175774;19;19927;-67
2023/01/24 06:54:35;;;;;;;;;;;3.80;85.60;;;;;;9181232;19;19930;-66
2023/01/24 06:57:37;;;;;;;;;;;3.70;85.50;;;;;;9181218;19;19919;-66
2023/01/24 07:00:40;;;;;;;;;;;3.70;85.60;;;;;;9177263;19;19926;-67
2023/01/24 07:03:42;;;;;;;;;;;3.70;85.60;;;;;;9180632;19;19919;-67
2023/01/24 07:06:46;;;;;;;;;;;3.80;85.60;;;;;;9178028;19;19933;-68
2023/01/24 07:09:48;;;;;;;;;;;3.80;85.60;;;;;;9176469;19;19918;-67
2023/01/24 07:12:51;;;;;;;;;;;3.80;85.60;;;;;;9163956;19;19929;-67
2023/01/24 07:15:53;;;;;;;;;;;3.80;85.60;;;;;;9169770;19;20387;-65
2023/01/24 07:18:56;;;;;;;;;;;3.80;85.50;;;;;;9167228;19;19923;-66
2023/01/24 07:21:58;;;;;;;;;;;3.80;85.50;;;;;;9168824;19;19922;-66
2023/01/24 07:25:02;;;;;;;;;;;3.80;85.50;;;;;;9168050;19;19925;-66
2023/01/24 07:28:04;;;;;;;;;;;3.80;85.50;;;;;;9167628;19;19957;-65
2023/01/24 07:31:07;;;;;;;;;;;3.80;85.50;;;;;;9167231;19;20485;-68
2023/01/24 07:34:09;;;;;;;;;;;3.70;85.40;;;;;;9166612;19;19922;-67
2023/01/24 07:37:12;;;;;;;;;;;3.70;85.50;;;;;;9176348;19;19919;-65
2023/01/24 07:40:14;;;;;;;;;;;3.70;85.50;;;;;;9173250;19;20249;-66
2023/01/24 07:43:19;;;;;;;;;;;3.70;85.50;;;;;;9173810;19;19933;-66
2023/01/24 07:46:21;;;;;;;;;;;3.70;85.50;;;;;;9173788;19;20265;-67
2023/01/24 07:49:24;;;;;;;;;;;3.70;85.50;;;;;;9165904;19;19929;-67
2023/01/24 07:52:26;;;;;;;;;;;3.70;85.50;;;;;;9176297;19;20256;-67
2023/01/24 07:55:29;;;;;;;;;;;3.80;85.60;;;;;;9179672;19;19929;-66
2023/01/24 07:58:30;;;;;;;;;;;3.80;85.50;;;;;;9174538;19;19926;-67
2023/01/24 08:01:35;;;;;;;;;;;3.80;85.50;;;;;;9176133;19;19923;-67
2023/01/24 08:04:36;;;;;;;;;;;3.80;85.50;;;;;;9172936;19;19914;-67
2023/01/24 08:07:39;;;;;;;;;;;3.80;85.40;;;;;;9170699;19;19922;-67
2023/01/24 08:10:41;;;;;;;;;;;3.80;85.40;;;;;;9168669;19;19931;-67
2023/01/24 08:13:45;;;;;;;;;;;3.70;85.50;;;;;;9171051;19;20344;-67
2023/01/24 08:16:46;;;;;;;;;;;3.70;85.40;;;;;;9170555;19;19922;-68
2023/01/24 08:19:50;;;;;;;;;;;3.70;85.40;;;;;;9170997;19;19911;-67
2023/01/24 08:22:59;;;;;;;;;;;3.80;85.50;;;;;;9174563;19;19947;-67
2023/01/24 08:26:03;;;;;;;;;;;3.70;85.50;;;;;;9169581;19;21464;-67
2023/01/24 08:29:04;;;;;;;;;;;3.80;85.50;;;;;;9170280;19;19926;-66
2023/01/24 08:32:07;;;;;;;;;;;3.70;85.50;;;;;;9171470;19;19930;-67
2023/01/24 08:35:09;;;;;;;;;;;3.70;85.50;;;;;;9169465;19;20269;-67
2023/01/24 08:38:13;;;;;;;;;;;3.70;85.40;;;;;;9169585;19;19919;-68
2023/01/24 08:41:14;;;;;;;;;;;3.80;85.50;;;;;;9174860;19;19922;-66
2023/01/24 08:44:17;;;;;;;;;;;3.80;85.50;;;;;;9169574;19;20333;-67
2023/01/24 08:47:20;;;;;;;;;;;3.80;85.40;;;;;;9169778;19;19955;-66
2023/01/24 08:50:24;;;;;;;;;;;3.80;85.50;;;;;;9170002;19;19942;-66
2023/01/24 08:53:26;;;;;;;;;;;3.80;85.40;;;;;;9171832;19;19936;-66
2023/01/24 08:56:29;;;;;;;;;;;3.80;85.40;;;;;;9168314;19;19922;-66
2023/01/24 08:59:30;;;;;;;;;;;3.80;85.40;;;;;;9166206;19;19922;-68
2023/01/24 09:02:36;;;;;;;;;;;3.80;85.40;;;;;;9172885;19;19921;-69
2023/01/24 09:05:38;;;;;;;;;;;3.80;85.40;;;;;;9176433;19;19926;-65
2023/01/24 09:08:42;;;;;;;;;;;3.80;85.30;;;;;;9176488;19;19922;-66
2023/01/24 09:11:43;;;;;;;;;;;3.80;85.40;;;;;;9177926;19;20267;-69
2023/01/24 09:14:46;;;;;;;;;;;3.80;85.40;;;;;;9177485;19;20754;-67
2023/01/24 09:17:48;;;;;;;;;;;3.80;85.40;;;;;;9180973;19;19922;-67
2023/01/24 09:20:51;;;;;;;;;;;3.80;85.40;;;;;;9179320;19;19919;-65
2023/01/24 09:23:54;;;;;;;;;;;3.80;85.40;;;;;;9178120;19;20259;-66
2023/01/24 09:26:57;;;;;;;;;;;3.80;85.40;;;;;;9178882;19;19922;-67
2023/01/24 09:29:59;;;;;;;;;;;3.80;85.40;;;;;;9177969;19;19922;-65
2023/01/24 09:33:03;;;;;;;;;;;3.80;85.40;;;;;;9178247;19;19915;-65
2023/01/24 09:36:05;;;;;;;;;;;3.80;85.40;;;;;;9180424;19;19919;-64
2023/01/24 09:39:08;;;;;;;;;;;3.90;85.40;;;;;;9183504;19;19929;-67
2023/01/24 09:42:15;;;;;;;;;;;3.90;85.40;;;;;;9183704;19;20481;-66
2023/01/24 09:45:27;;;;;;;;;;;3.90;85.40;;;;;;9183473;19;19927;-66
2023/01/24 09:48:28;;;;;;;;;;;3.90;85.40;;;;;;9174915;19;19914;-65
2023/01/24 09:51:34;;;;;;;;;;;3.90;85.40;;;;;;9169306;19;19925;-66
2023/01/24 09:54:37;;;;;;;;;;;3.90;85.40;;;;;;9175236;19;19933;-65
2023/01/24 09:57:49;;;;;;;;;;;4.00;85.40;;;;;;9176138;19;19914;-66
2023/01/24 10:00:51;;;;;;;;;;;4.00;85.40;;;;;;9173032;19;20249;-65
2023/01/24 10:03:56;;;;;;;;;;;4.00;85.30;;;;;;9173130;19;19926;-66
2023/01/24 10:07:12;;;;;;;;;;;4.00;85.30;;;;;;9174298;19;20551;-66
2023/01/24 10:10:39;;;;;;;;;;;4.00;85.30;;;;;;9173109;19;19922;-65
2023/01/24 10:13:40;;;;;;;;;;;4.00;85.40;;;;;;9174573;19;20332;-64
2023/01/24 10:16:54;;;;;;;;;;;4.00;85.30;;;;;;9175432;19;19926;-66
2023/01/24 10:20:08;;;;;;;;;;;4.00;85.30;;;;;;9170872;19;19990;-66
2023/01/24 10:23:20;;;;;;;;;;;4.00;85.90;;;;;;9173674;19;19925;-67
2023/01/24 10:26:24;;;;;;;;;;;4.00;85.30;;;;;;9173657;19;19922;-67
2023/01/24 10:29:35;;;;;;;;;;;4.00;85.30;;;;;;9177443;19;19926;-66
2023/01/24 10:32:43;;;;;;;;;;;4.10;85.30;;;;;;9175712;19;19918;-67
2023/01/24 10:35:55;;;;;;;;;;;4.00;85.30;;;;;;9176455;19;20580;-66
2023/01/24 10:38:56;;;;;;;;;;;4.00;85.20;;;;;;9177835;19;19918;-66
2023/01/24 10:42:00;;;;;;;;;;;4.00;85.30;;;;;;9178986;19;19915;-66
2023/01/24 10:45:08;;;;;;;;;;;4.00;85.30;;;;;;9179016;19;19923;-65
2023/01/24 10:48:23;;;;;;;;;;;4.00;85.20;;;;;;9176003;19;19929;-67
2023/01/24 10:51:24;;;;;;;;;;;4.00;85.40;;;;;;9168210;19;19926;-67
2023/01/24 10:54:28;;;;;;;;;;;4.00;85.30;;;;;;9171719;19;19923;-65
2023/01/24 10:57:32;;;;;;;;;;;4.00;85.30;;;;;;9171529;19;19919;-65
2023/01/24 11:00:41;;;;;;;;;;;4.10;86.00;;;;;;9166838;19;19919;-66
2023/01/24 11:03:42;;;;;;;;;;;4.00;85.30;;;;;;9170674;19;19922;-67
2023/01/24 11:06:47;;;;;;;;;;;4.10;85.30;;;;;;9170237;19;20358;-66
2023/01/24 11:09:48;;;;;;;;;;;4.10;85.20;;;;;;9169916;19;19939;-66
2023/01/24 11:12:53;;;;;;;;;;;4.10;85.20;;;;;;9170944;19;20267;-66
2023/01/24 11:16:19;;;;;;;;;;;4.10;85.20;;;;;;9170602;19;20343;-66
2023/01/24 11:19:25;;;;;;;;;;;4.10;85.20;;;;;;9171861;19;20259;-65
2023/01/24 11:22:34;;;;;;;;;;;4.10;85.20;;;;;;9174110;19;19914;-65
2023/01/24 11:25:53;;;;;;;;;;;4.10;85.20;;;;;;9167701;19;20693;-66
2023/01/24 11:29:04;;;;;;;;;;;4.10;85.20;;;;;;9177786;19;19929;-65
2023/01/24 11:32:23;;;;;;;;;;;4.10;85.20;;;;;;9177229;19;20325;-65
2023/01/24 11:35:29;;;;;;;;;;;4.00;85.10;;;;;;9177735;19;20320;-66
2023/01/24 11:38:37;;;;;;;;;;;4.00;85.20;;;;;;9176508;19;19915;-67
2023/01/24 11:41:46;;;;;;;;;;;4.00;85.20;;;;;;9176298;19;19930;-67
2023/01/24 11:44:58;;;;;;;;;;;4.00;85.20;;;;;;9175353;19;19911;-68
2023/01/24 11:48:17;;;;;;;;;;;4.10;85.30;;;;;;9177511;19;19930;-65
2023/01/24 11:51:40;;;;;;;;;;;4.10;85.30;;;;;;9172762;19;20412;-65
2023/01/24 11:54:57;;;;;;;;;;;4.10;85.20;;;;;;9172326;19;19921;-67
2023/01/24 11:58:19;;;;;;;;;;;4.10;85.20;;;;;;9163945;19;19923;-65
2023/01/24 12:01:53;;;;;;;;;;;4.10;85.10;;;;;;9165835;19;20010;-66
2023/01/24 12:05:18;;;;;;;;;;;4.10;85.10;;;;;;9166328;19;19919;-65
2023/01/24 12:08:26;;;;;;;;;;;4.10;85.10;;;;;;9169152;19;19944;-65
2023/01/24 12:11:35;;;;;;;;;;;4.10;85.10;;;;;;9165012;19;19930;-66
2023/01/24 12:14:47;;;;;;;;;;;4.10;85.10;;;;;;9166958;19;19982;-66
2023/01/24 12:17:58;;;;;;;;;;;4.10;85.20;;;;;;9171660;19;19925;-66
2023/01/24 12:21:08;;;;;;;;;;;4.10;85.20;;;;;;9168111;19;19919;-65
2023/01/24 12:24:14;;;;;;;;;;;4.10;85.20;;;;;;9166461;19;19915;-67
2023/01/24 12:27:17;;;;;;;;;;;4.10;85.20;;;;;;9164889;19;19919;-65
2023/01/24 12:30:29;;;;;;;;;;;4.10;85.10;;;;;;9163392;19;19918;-65
2023/01/24 12:33:50;;;;;;;;;;;4.10;85.20;;;;;;9167897;19;20332;-67
2023/01/24 12:37:12;;;;;;;;;;;4.10;85.70;;;;;;9172341;19;20340;-67
2023/01/24 12:40:14;;;;;;;;;;;4.20;85.10;;;;;;9170353;19;19923;-67
2023/01/24 12:43:47;;;;;;;;;;;4.20;85.10;;;;;;9170415;19;19929;-66
2023/01/24 12:47:07;;;;;;;;;;;4.10;85.00;;;;;;9173409;19;19962;-66
2023/01/24 12:50:22;;;;;;;;;;;4.20;85.10;;;;;;9174209;19;19923;-66
2023/01/24 12:53:27;;;;;;;;;;;4.20;85.00;;;;;;9176595;19;19918;-66
2023/01/24 12:56:34;;;;;;;;;;;4.10;85.00;;;;;;9175355;19;19923;-66
2023/01/24 12:59:35;;;;;;;;;;;4.20;85.00;;;;;;9168489;19;19927;-66
2023/01/24 13:02:42;;;;;;;;;;;4.20;85.00;;;;;;9170752;19;19918;-66
2023/01/24 13:06:04;;;;;;;;;;;4.20;85.00;;;;;;9174934;19;19915;-67
2023/01/24 13:09:13;;;;;;;;;;;4.20;84.90;;;;;;9171306;19;19917;-67
2023/01/24 13:12:16;;;;;;;;;;;4.10;85.00;;;;;;9170858;19;19915;-66
2023/01/24 13:15:22;;;;;;;;;;;4.10;85.10;;;;;;9173325;19;20375;-65
2023/01/24 13:18:29;;;;;;;;;;;4.10;85.10;;;;;;9173978;19;20342;-67
2023/01/24 13:21:48;;;;;;;;;;;4.10;85.10;;;;;;9178284;19;19926;-66
2023/01/24 13:24:56;;;;;;;;;;;4.10;85.00;;;;;;9176193;19;19923;-66
2023/01/24 13:28:15;;;;;;;;;;;4.10;85.10;;;;;;9171690;19;19918;-67
2023/01/24 13:31:32;;;;;;;;;;;4.10;85.00;;;;;;9170739;19;20042;-66
2023/01/24 13:34:41;;;;;;;;;;;4.20;85.00;;;;;;9174407;19;19919;-66
2023/01/24 13:37:48;;;;;;;;;;;4.20;85.00;;;;;;9170686;19;20367;-66
2023/01/24 13:40:56;;;;;;;;;;;4.20;85.00;;;;;;9170989;19;19911;-68
2023/01/24 13:43:58;;;;;;;;;;;4.20;85.00;;;;;;9175993;19;19926;-66
2023/01/24 13:47:02;;;;;;;;;;;4.20;84.90;;;;;;9172026;19;19925;-67
2023/01/24 13:50:10;;;;;;;;;;;4.30;85.00;;;;;;9169482;19;19927;-65
2023/01/24 13:53:34;;;;;;;;;;;4.30;85.00;;;;;;9170402;19;19941;-65
2023/01/24 13:56:55;;;;;;;;;;;4.30;85.00;;;;;;9170876;19;19915;-65
2023/01/24 14:00:02;;;;;;;;;;;4.30;85.50;;;;;;9170635;19;20343;-65
2023/01/24 14:03:15;;;;;;;;;;;4.30;84.80;;;;;;9173918;19;19922;-66
2023/01/24 14:06:19;;;;;;;;;;;4.30;84.80;;;;;;9170965;19;19915;-66
2023/01/24 14:09:22;;;;;;;;;;;4.30;84.80;;;;;;9174479;19;20849;-66
2023/01/24 14:12:26;;;;;;;;;;;4.30;84.80;;;;;;9171388;19;20001;-68
2023/01/24 14:15:36;;;;;;;;;;;4.30;84.80;;;;;;9169021;19;19996;-66
2023/01/24 14:18:45;;;;;;;;;;;4.30;84.90;;;;;;9170340;19;20259;-64
2023/01/24 14:21:49;;;;;;;;;;;4.30;84.80;;;;;;9166647;19;19931;-66
2023/01/24 14:25:04;;;;;;;;;;;4.30;85.40;;;;;;9170462;19;19919;-65
2023/01/24 14:28:14;;;;;;;;;;;4.30;84.80;;;;;;9173390;19;20268;-68
2023/01/24 14:31:25;;;;;;;;;;;4.30;84.80;;;;;;9170459;19;19929;-68
2023/01/24 14:34:29;;;;;;;;;;;4.20;84.80;;;;;;9172342;19;19927;-67
2023/01/24 14:37:33;;;;;;;;;;;4.20;84.80;;;;;;9170378;19;19922;-65
2023/01/24 14:40:38;;;;;;;;;;;4.20;84.90;;;;;;9170488;19;20359;-65
2023/01/24 14:43:41;;;;;;;;;;;4.20;84.90;;;;;;9169782;19;20336;-65
2023/01/24 14:46:50;;;;;;;;;;;4.20;84.90;;;;;;9170527;19;19923;-67
2023/01/24 14:49:55;;;;;;;;;;;4.20;84.80;;;;;;9169951;19;20235;-65
2023/01/24 14:52:58;;;;;;;;;;;4.10;84.80;;;;;;9168158;19;19942;-66
2023/01/24 14:56:05;;;;;;;;;;;4.10;84.90;;;;;;9169327;19;19923;-66
2023/01/24 14:59:11;;;;;;;;;;;4.10;84.90;;;;;;9162721;19;19923;-66
2023/01/24 15:02:15;;;;;;;;;;;4.10;84.90;;;;;;9172218;19;19926;-66
2023/01/24 15:05:21;;;;;;;;;;;4.10;84.80;;;;;;9175770;19;19919;-66
2023/01/24 15:08:25;;;;;;;;;;;4.10;84.80;;;;;;9170169;19;19925;-65
2023/01/24 15:11:29;;;;;;;;;;;4.10;84.80;;;;;;9166400;19;19950;-66
2023/01/24 15:14:33;;;;;;;;;;;4.10;84.80;;;;;;9166884;19;19922;-66
2023/01/24 15:17:35;;;;;;;;;;;4.10;84.80;;;;;;9166238;19;19918;-67
2023/01/24 15:20:38;;;;;;;;;;;4.10;84.80;;;;;;9169135;19;20584;-66
2023/01/24 15:23:40;;;;;;;;;;;4.00;84.70;;;;;;9168408;19;19918;-66
2023/01/24 15:26:43;;;;;;;;;;;4.10;84.80;;;;;;9169542;19;19937;-67
2023/01/24 15:29:46;;;;;;;;;;;4.10;84.70;;;;;;9171606;19;20455;-66
2023/01/24 15:32:56;;;;;;;;;;;4.00;84.70;;;;;;9167211;19;20387;-67
2023/01/24 15:35:57;;;;;;;;;;;4.00;84.70;;;;;;9167574;19;19997;-66
2023/01/24 15:39:01;;;;;;;;;;;3.90;84.70;;;;;;9166255;19;20899;-66
2023/01/24 15:45:27;;;;;;;;;;;3.90;84.80;;;;;;9170537;19;20339;-66
2023/01/24 15:48:29;;;;;;;;;;;3.90;84.80;;;;;;9168894;19;19926;-66
2023/01/24 15:51:34;;;;;;;;;;;3.90;84.80;;;;;;9163122;19;19918;-66
2023/01/24 15:54:39;;;;;;;;;;;3.90;84.80;;;;;;9166573;19;19919;-66
2023/01/24 15:57:43;;;;;;;;;;;3.80;84.70;;;;;;9165687;19;19923;-67
2023/01/24 16:00:51;;;;;;;;;;;3.80;84.70;;;;;;9162768;19;19927;-66
2023/01/24 16:03:54;;;;;;;;;;;3.80;84.70;;;;;;9166793;19;19918;-66
2023/01/24 16:06:56;;;;;;;;;;;3.80;84.70;;;;;;9165070;19;19934;-66
2023/01/24 16:09:59;;;;;;;;;;;3.80;84.70;;;;;;9164661;19;20296;-66
2023/01/24 16:13:02;;;;;;;;;;;3.80;84.70;;;;;;9168701;19;19923;-65
2023/01/24 16:16:07;;;;;;;;;;;3.80;84.70;;;;;;9171605;19;20308;-66
2023/01/24 16:19:19;;;;;;;;;;;3.80;84.70;;;;;;9174516;19;19926;-65
2023/01/24 16:22:23;;;;;;;;;;;3.80;84.60;;;;;;9168980;19;19915;-65
2023/01/24 16:25:24;;;;;;;;;;;3.80;84.70;;;;;;9168755;19;20348;-65
2023/01/24 16:28:28;;;;;;;;;;;3.80;84.70;;;;;;9172344;19;19966;-65
2023/01/24 16:31:29;;;;;;;;;;;3.80;84.70;;;;;;9169449;19;19927;-65
2023/01/24 16:34:33;;;;;;;;;;;3.80;84.70;;;;;;9170653;19;19925;-65
2023/01/24 16:37:35;;;;;;;;;;;3.80;84.70;;;;;;9169545;19;20586;-65
2023/01/24 16:41:01;;;;;;;;;;;3.80;84.70;;;;;;9177927;19;19926;-65
2023/01/24 16:44:03;;;;;;;;;;;3.80;84.70;;;;;;9176213;19;19925;-65
2023/01/24 16:47:07;;;;;;;;;;;3.80;84.80;;;;;;9177156;19;19930;-66
2023/01/24 16:50:09;;;;;;;;;;;3.80;84.70;;;;;;9174951;19;19918;-65
2023/01/24 16:53:13;;;;;;;;;;;3.80;84.70;;;;;;9170617;19;19921;-65
2023/01/24 16:56:15;;;;;;;;;;;3.70;84.60;;;;;;9170128;19;20725;-65
2023/01/24 16:59:19;;;;;;;;;;;3.70;84.60;;;;;;9172833;19;20336;-65
2023/01/24 17:02:21;;;;;;;;;;;3.70;84.60;;;;;;9176883;19;19930;-65
2023/01/24 17:05:25;;;;;;;;;;;3.70;84.50;;;;;;9176276;19;19986;-65
2023/01/24 17:08:27;;;;;;;;;;;3.70;84.50;;;;;;9177255;19;19925;-64
2023/01/24 17:11:31;;;;;;;;;;;3.70;84.50;;;;;;9173789;19;19919;-66
2023/01/24 17:14:35;;;;;;;;;;;3.70;84.60;;;;;;9177151;19;19918;-65
2023/01/24 17:17:39;;;;;;;;;;;3.70;84.60;;;;;;9176047;19;20336;-65
2023/01/24 17:20:41;;;;;;;;;;;3.70;84.60;;;;;;9176074;19;19986;-66
2023/01/24 17:23:44;;;;;;;;;;;3.60;84.50;;;;;;9180162;19;19923;-65
2023/01/24 17:26:47;;;;;;;;;;;3.60;84.60;;;;;;9184616;19;19926;-65
2023/01/24 17:29:51;;;;;;;;;;;3.60;84.70;;;;;;9175788;19;19914;-65
2023/01/24 17:32:53;;;;;;;;;;;3.60;84.60;;;;;;9178765;19;19918;-66
2023/01/24 17:35:56;;;;;;;;;;;3.60;84.60;;;;;;9178317;19;20443;-65
2023/01/24 17:38:58;;;;;;;;;;;3.60;84.50;;;;;;9178664;19;19915;-66
2023/01/24 17:42:01;;;;;;;;;;;3.60;84.50;;;;;;9177829;19;19925;-67
2023/01/24 17:45:03;;;;;;;;;;;3.60;84.50;;;;;;9177939;19;20264;-67
2023/01/24 17:48:07;;;;;;;;;;;3.60;85.10;;;;;;9177052;19;19917;-65
2023/01/24 17:51:10;;;;;;;;;;;3.60;84.50;;;;;;9175569;19;19934;-66
2023/01/24 17:54:15;;;;;;;;;;;3.60;84.50;;;;;;9176317;19;19923;-65
2023/01/24 17:57:17;;;;;;;;;;;3.60;84.60;;;;;;9177132;19;19918;-67
2023/01/24 18:00:21;;;;;;;;;;;3.60;84.50;;;;;;9173122;19;20033;-67
2023/01/24 18:03:23;;;;;;;;;;;3.60;84.50;;;;;;9176238;19;20391;-65
2023/01/24 18:06:27;;;;;;;;;;;3.60;84.50;;;;;;9174568;19;19918;-66
2023/01/24 18:09:28;;;;;;;;;;;3.60;84.50;;;;;;9176704;19;20384;-67
2023/01/24 18:12:32;;;;;;;;;;;3.60;85.00;;;;;;9173398;19;20438;-65
2023/01/24 18:15:34;;;;;;;;;;;3.60;84.40;;;;;;9177367;19;19922;-66
2023/01/24 18:18:38;;;;;;;;;;;3.60;84.50;;;;;;9175460;19;19929;-65
2023/01/24 18:21:40;;;;;;;;;;;3.60;84.50;;;;;;9176870;19;20686;-66
2023/01/24 18:24:44;;;;;;;;;;;3.60;84.50;;;;;;9176415;19;19922;-67
2023/01/24 18:27:45;;;;;;;;;;;3.50;84.50;;;;;;9175674;19;19926;-66
2023/01/24 18:30:49;;;;;;;;;;;3.50;84.40;;;;;;9173330;19;19911;-66
2023/01/24 18:33:54;;;;;;;;;;;3.50;84.50;;;;;;9172758;19;19910;-66
2023/01/24 18:36:58;;;;;;;;;;;3.50;84.50;;;;;;9174782;19;20589;-65
2023/01/24 18:39:59;;;;;;;;;;;3.50;84.50;;;;;;9174798;19;19922;-65
2023/01/24 18:43:03;;;;;;;;;;;3.60;84.50;;;;;;9174738;19;19918;-64
2023/01/24 18:46:08;;;;;;;;;;;3.50;84.40;;;;;;9160325;19;20453;-65
2023/01/24 18:49:40;;;;;;;;;;;3.60;84.50;;;;;;9212509;19;19914;-65
2023/01/24 18:52:46;;;;;;;;;;;3.60;84.40;;;;;;9211955;19;19919;-65
2023/01/24 18:55:49;;;;;;;;;;;3.60;84.40;;;;;;9215000;19;19919;-65
2023/01/24 18:58:56;;;;;;;;;;;3.60;84.40;;;;;;9210083;19;20272;-66
2023/01/24 19:02:00;;;;;;;;;;;3.60;84.40;;;;;;9213771;19;19922;-65
2023/01/24 19:05:08;;;;;;;;;;;3.60;84.40;;;;;;9213445;19;19934;-66
2023/01/24 19:08:12;;;;;;;;;;;3.60;84.40;;;;;;9212999;19;19919;-65